Date,TemperatureHighF,TemperatureAvgF,TemperatureLowF,DewpointHighF,DewpointAvgF,DewpointLowF,HumidityHigh,HumidityAvg,HumidityLow,PressureMaxIn,PressureMinIn,WindSpeedMaxMPH,WindSpeedAvgMPH,GustSpeedMaxMPH,PrecipitationSumIn
2013-4-6,72,69,39,0,0,0,60,33,26,29.64,29.06,0,0,0,0.00
2013-4-7,76,69,62,0,0,0,64,47,35,29.25,29.14,0,0,0,0.00
2013-4-8,77,70,63,0,0,0,69,58,47,29.21,29.06,0,0,0,0.00
2013-4-9,77,72,67,0,0,0,68,62,56,29.23,29.14,0,0,0,0.00
2013-4-10,82,73,65,0,0,0,79,68,52,29.15,28.94,0,0,0,0.00
2013-4-11,66,55,48,0,0,0,79,61,49,29.08,28.99,0,0,0,0.00
2013-4-12,53,49,45,0,0,0,56,49,42,29.33,29.06,0,0,0,0.00
2013-4-13,63,54,43,0,0,0,61,48,35,29.40,29.24,0,0,0,0.00
2013-4-14,77,64,51,0,0,0,65,51,30,29.24,28.96,0,0,0,0.00
2013-4-15,71,66,62,0,0,0,74,67,58,29.22,29.07,0,0,0,0.00
2013-4-16,62,62,62,0,0,0,68,68,68,29.21,29.21,0,0,0,0.00
2013-4-22,70,65,-76,0,0,0,82,43,34,29.35,4.72,0,0,0,0.00
2013-4-23,65,58,48,0,0,0,81,68,48,29.35,29.20,0,0,0,0.00
2013-4-24,57,50,45,0,0,0,71,54,36,29.57,29.33,0,0,0,0.00
2013-4-25,65,57,47,0,0,0,53,41,31,29.67,29.55,0,0,0,0.00
2013-4-26,59,56,53,0,0,0,72,60,45,29.70,29.58,0,0,0,0.00
2013-4-27,57,54,51,0,0,0,88,83,72,29.61,29.25,0,0,0,0.00
2013-4-28,60,58,55,0,0,0,84,77,69,29.30,29.22,0,0,0,0.00
2013-4-29,77,66,53,0,0,0,80,67,50,29.27,29.13,0,0,0,0.00
2013-4-30,85,75,65,0,0,0,73,54,29,29.29,29.15,0,0,0,0.00